Time;durP1;ratioP1;P1;durP2;ratioP2;P2;SDS_P1;SDS_P2;PMS_P1;PMS_P2;Temp;Humidity;BMP_temperature;BMP_pressure;BME280_temperature;BME280_humidity;BME280_pressure;Samples;Min_cycle;Max_cycle;Signal;HPM_P1;HPM_P2
2022/08/05 00:00:24;;;;;;;;;;;;;;;;;;5043927;28;20486;-55
2022/08/05 00:02:50;;;;;;;;;;;;;;;;;;5042969;28;20031;-56
2022/08/05 00:05:15;;;;;;;;;;;;;;;;;;5043604;28;19924;-66
2022/08/05 00:07:41;;;;;;;;;;;;;;;;;;5044174;28;19921;-55
2022/08/05 00:10:07;;;;;;;;;;;;;;;;;;5025783;28;19936;-55
2022/08/05 00:12:33;;;;;;;;;;;;;;;;;;5042576;28;20027;-57
2022/08/05 00:14:59;;;;;;;;;;;;;;;;;;5042794;28;20333;-51
2022/08/05 00:17:25;;;;;;;;;;;;;;;;;;5044223;28;19970;-52
2022/08/05 00:19:51;;;;;;;;;;;;;;;;;;5042265;28;19924;-62
2022/08/05 00:22:17;;;;;;;;;;;;;;;;;;5044188;28;19920;-54
2022/08/05 00:24:43;;;;;;;;;;;;;;;;;;5043945;28;19924;-62
2022/08/05 00:27:09;;;;;;;;;;;;;;;;;;5043068;28;19921;-61
2022/08/05 00:29:35;;;;;;;;;;;;;;;;;;5043722;28;19948;-59
2022/08/05 00:32:02;;;;;;;;;;;;;;;;;;5042767;28;19932;-58
2022/08/05 00:34:28;;;;;;;;;;;;;;;;;;5042830;28;20011;-58
2022/08/05 00:36:54;;;;;;;;;;;;;;;;;;5042775;28;20015;-58
2022/08/05 00:39:20;;;;;;;;;;;;;;;;;;5044213;28;19974;-55
2022/08/05 00:41:46;;;;;;;;;;;;;;;;;;5024698;28;19924;-68
2022/08/05 00:44:12;;;;;;;;;;;;;;;;;;5044631;28;19928;-55
2022/08/05 00:46:37;;;;;;;;;;;;;;;;;;5043418;28;19920;-64
2022/08/05 00:49:03;;;;;;;;;;;;;;;;;;5046998;28;19944;-57
2022/08/05 00:51:29;;;;;;;;;;;;;;;;;;5047662;28;19964;-59
2022/08/05 00:53:55;;;;;;;;;;;;;;;;;;5045387;28;20753;-53
2022/08/05 00:56:21;;;;;;;;;;;;;;;;;;5047518;28;19928;-60
2022/08/05 00:58:47;;;;;;;;;;;;;;;;;;5045545;28;20029;-60
2022/08/05 01:01:16;;;;;;;;;;;;;;;;;;5047449;28;19979;-57
2022/08/05 01:03:42;;;;;;;;;;;;;;;;;;5047275;28;20392;-54
2022/08/05 01:06:08;;;;;;;;;;;;;;;;;;5046970;28;19924;-59
2022/08/05 01:08:34;;;;;;;;;;;;;;;;;;5045893;28;20027;-59
2022/08/05 01:10:59;;;;;;;;;;;;;;;;;;5046044;28;19944;-60
2022/08/05 01:13:25;;;;;;;;;;;;;;;;;;5047534;28;19928;-66
2022/08/05 01:15:51;;;;;;;;;;;;;;;;;;5044962;28;20835;-60
2022/08/05 01:18:17;;;;;;;;;;;;;;;;;;5046342;28;19921;-54
2022/08/05 01:20:43;;;;;;;;;;;;;;;;;;5047196;28;19924;-60
2022/08/05 01:23:10;;;;;;;;;;;;;;;;;;5046034;28;20576;-55
2022/08/05 01:25:36;;;;;;;;;;;;;;;;;;5045849;28;19931;-55
2022/08/05 01:28:02;;;;;;;;;;;;;;;;;;5046425;28;20297;-59
2022/08/05 01:30:28;;;;;;;;;;;;;;;;;;5046154;28;19946;-58
2022/08/05 01:32:54;;;;;;;;;;;;;;;;;;5044892;28;19935;-54
2022/08/05 01:35:20;;;;;;;;;;;;;;;;;;5046687;28;19920;-55
2022/08/05 01:37:46;;;;;;;;;;;;;;;;;;5045364;28;19927;-67
2022/08/05 01:40:12;;;;;;;;;;;;;;;;;;5047338;28;19921;-54
2022/08/05 01:42:38;;;;;;;;;;;;;;;;;;5046189;28;19920;-60
2022/08/05 01:45:03;;;;;;;;;;;;;;;;;;5044856;28;19931;-59
2022/08/05 01:47:29;;;;;;;;;;;;;;;;;;5046073;28;19920;-59
2022/08/05 01:49:55;;;;;;;;;;;;;;;;;;5032465;28;20010;-55
2022/08/05 01:52:21;;;;;;;;;;;;;;;;;;5040160;28;20394;-60
2022/08/05 01:54:47;;;;;;;;;;;;;;;;;;5038871;28;19939;-59
2022/08/05 01:57:13;;;;;;;;;;;;;;;;;;5032938;28;19921;-61
2022/08/05 01:59:39;;;;;;;;;;;;;;;;;;5035139;28;19921;-63
2022/08/05 02:02:05;;;;;;;;;;;;;;;;;;5039561;28;20257;-59
2022/08/05 02:04:31;;;;;;;;;;;;;;;;;;5035112;28;20509;-62
2022/08/05 02:06:56;;;;;;;;;;;;;;;;;;5035398;28;19926;-61
2022/08/05 02:09:22;;;;;;;;;;;;;;;;;;5035181;28;19962;-59
2022/08/05 02:11:48;;;;;;;;;;;;;;;;;;5032950;28;19924;-60
2022/08/05 02:14:15;;;;;;;;;;;;;;;;;;5030576;28;19925;-60
2022/08/05 02:16:41;;;;;;;;;;;;;;;;;;5032875;28;19925;-61
2022/08/05 02:19:06;;;;;;;;;;;;;;;;;;5037069;28;20273;-58
2022/08/05 02:21:32;;;;;;;;;;;;;;;;;;5030822;28;19925;-60
2022/08/05 02:23:58;;;;;;;;;;;;;;;;;;5032267;28;19932;-57
2022/08/05 02:26:24;;;;;;;;;;;;;;;;;;5034725;28;19925;-57
2022/08/05 02:28:50;;;;;;;;;;;;;;;;;;5041318;28;19925;-58
2022/08/05 02:31:16;;;;;;;;;;;;;;;;;;5035350;28;19925;-57
2022/08/05 02:33:43;;;;;;;;;;;;;;;;;;5038473;28;19920;-60
2022/08/05 02:36:09;;;;;;;;;;;;;;;;;;5039030;28;20000;-57
2022/08/05 02:38:35;;;;;;;;;;;;;;;;;;5036082;28;20103;-57
2022/08/05 02:41:01;;;;;;;;;;;;;;;;;;5036022;28;20885;-58
2022/08/05 02:43:27;;;;;;;;;;;;;;;;;;5033585;28;19920;-57
2022/08/05 02:45:53;;;;;;;;;;;;;;;;;;5036611;28;20399;-56
2022/08/05 02:48:19;;;;;;;;;;;;;;;;;;5035365;28;19968;-61
2022/08/05 02:50:46;;;;;;;;;;;;;;;;;;5045086;28;19921;-57
2022/08/05 02:53:12;;;;;;;;;;;;;;;;;;5045443;28;20389;-59
2022/08/05 02:55:38;;;;;;;;;;;;;;;;;;5044995;28;19971;-56
2022/08/05 02:58:03;;;;;;;;;;;;;;;;;;5044076;28;19925;-58
2022/08/05 03:00:29;;;;;;;;;;;;;;;;;;5043651;28;19920;-60
2022/08/05 03:02:55;;;;;;;;;;;;;;;;;;5043751;28;19924;-60
2022/08/05 03:05:21;;;;;;;;;;;;;;;;;;5045523;28;19978;-57
2022/08/05 03:07:47;;;;;;;;;;;;;;;;;;5043269;28;19925;-61
2022/08/05 03:10:13;;;;;;;;;;;;;;;;;;5044313;28;19959;-54
2022/08/05 03:12:39;;;;;;;;;;;;;;;;;;5045794;28;19924;-62
2022/08/05 03:15:05;;;;;;;;;;;;;;;;;;5044792;28;20046;-57
2022/08/05 03:17:31;;;;;;;;;;;;;;;;;;5046696;28;19947;-58
2022/08/05 03:19:57;;;;;;;;;;;;;;;;;;5045172;28;19983;-62
2022/08/05 03:22:23;;;;;;;;;;;;;;;;;;5044525;28;19935;-52
2022/08/05 03:24:49;;;;;;;;;;;;;;;;;;5043914;28;19932;-53
2022/08/05 03:27:15;;;;;;;;;;;;;;;;;;5045227;28;20312;-55
2022/08/05 03:29:41;;;;;;;;;;;;;;;;;;5044317;28;20312;-65
2022/08/05 03:32:07;;;;;;;;;;;;;;;;;;5044509;28;20013;-59
2022/08/05 03:34:33;;;;;;;;;;;;;;;;;;5044227;28;19959;-57
2022/08/05 03:36:59;;;;;;;;;;;;;;;;;;5042668;28;19920;-60
2022/08/05 03:39:25;;;;;;;;;;;;;;;;;;5044925;28;20312;-53
2022/08/05 03:41:51;;;;;;;;;;;;;;;;;;5043221;28;19933;-61
2022/08/05 03:44:16;;;;;;;;;;;;;;;;;;5043927;28;19924;-57
2022/08/05 03:46:42;;;;;;;;;;;;;;;;;;5044471;28;20022;-60
2022/08/05 03:49:08;;;;;;;1.00;0.50;;;;;;;;;;5043584;28;19924;-54
2022/08/05 03:51:34;;;;;;;;;;;;;;;;;;5043146;28;20320;-59
2022/08/05 03:54:00;;;;;;;;;;;;;;;;;;5043201;28;19924;-61
2022/08/05 03:56:26;;;;;;;;;;;;;;;;;;5043334;28;20689;-59
2022/08/05 03:58:52;;;;;;;;;;;;;;;;;;5040938;28;19929;-61
2022/08/05 04:01:18;;;;;;;;;;;;;;;;;;5043607;28;19936;-60
2022/08/05 04:03:44;;;;;;;;;;;;;;;;;;5043002;28;19931;-58
2022/08/05 04:06:10;;;;;;;;;;;;;;;;;;5044112;28;19925;-56
2022/08/05 04:08:36;;;;;;;;;;;;;;;;;;5043814;28;19928;-62
2022/08/05 04:11:02;;;;;;;;;;;;;;;;;;5041562;28;20404;-54
2022/08/05 04:13:29;;;;;;;0.40;0.30;;;;;;;;;;5043440;28;20053;-58
2022/08/05 04:15:55;;;;;;;;;;;;;;;;;;5042338;28;19924;-57
2022/08/05 04:18:21;;;;;;;;;;;;;;;;;;5043551;28;20015;-60
2022/08/05 04:20:46;;;;;;;;;;;;;;;;;;5042845;28;19947;-63
2022/08/05 04:23:12;;;;;;;;;;;;;;;;;;5044992;28;19942;-57
2022/08/05 04:25:38;;;;;;;;;;;;;;;;;;5047139;28;19921;-57
2022/08/05 04:28:04;;;;;;;;;;;;;;;;;;5046817;28;20443;-57
2022/08/05 04:30:30;;;;;;;;;;;;;;;;;;5047305;28;19924;-60
2022/08/05 04:32:56;;;;;;;;;;;;;;;;;;5045681;28;19972;-61
2022/08/05 04:35:22;;;;;;;;;;;;;;;;;;5046787;28;19955;-59
2022/08/05 04:37:48;;;;;;;;;;;;;;;;;;5046103;28;20362;-56
2022/08/05 04:40:15;;;;;;;;;;;;;;;;;;5047209;28;19975;-57
2022/08/05 04:42:41;;;;;;;;;;;;;;;;;;5046204;28;19925;-62
2022/08/05 04:45:07;;;;;;;;;;;;;;;;;;5045396;28;19928;-58
2022/08/05 04:47:33;;;;;;;;;;;;;;;;;;5044881;28;19928;-61
2022/08/05 04:49:59;;;;;;;;;;;;;;;;;;5046725;28;19925;-59
2022/08/05 04:52:24;;;;;;;;;;;;;;;;;;5046205;28;20555;-56
2022/08/05 04:54:50;;;;;;;;;;;;;;;;;;5045924;28;19929;-68
2022/08/05 04:57:16;;;;;;;;;;;;;;;;;;5047786;28;19925;-65
2022/08/05 04:59:42;;;;;;;;;;;;;;;;;;5047152;28;20343;-64
2022/08/05 05:02:08;;;;;;;;;;;;;;;;;;5045961;28;19920;-54
2022/08/05 05:04:34;;;;;;;;;;;;;;;;;;5044422;28;19932;-59
2022/08/05 05:07:00;;;;;;;;;;;;;;;;;;5046083;28;19928;-58
2022/08/05 05:09:26;;;;;;;;;;;;;;;;;;5047572;28;20015;-57
2022/08/05 05:11:52;;;;;;;;;;;;;;;;;;5045705;28;19946;-60
2022/08/05 05:14:18;;;;;;;;;;;;;;;;;;5046751;28;19931;-58
2022/08/05 05:16:43;;;;;;;;;;;;;;;;;;5047368;28;19925;-62
2022/08/05 05:19:09;;;;;;;;;;;;;;;;;;5045740;28;20411;-59
2022/08/05 05:21:35;;;;;;;;;;;;;;;;;;5045779;28;19921;-60
2022/08/05 05:24:01;;;;;;;;;;;;;;;;;;5045870;28;20434;-55
2022/08/05 05:26:27;;;;;;;;;;;;;;;;;;5045613;28;19925;-59
2022/08/05 05:28:53;;;;;;;;;;;;;;;;;;5045528;28;20277;-59
2022/08/05 05:31:19;;;;;;;;;;;;;;;;;;5044538;28;19920;-58
2022/08/05 05:33:45;;;;;;;;;;;;;;;;;;5045491;28;20406;-69
2022/08/05 05:36:11;;;;;;;;;;;;;;;;;;5046084;28;20466;-57
2022/08/05 05:38:37;;;;;;;;;;;;;;;;;;5046036;28;19967;-57
2022/08/05 05:41:03;;;;;;;;;;;;;;;;;;5045954;28;19935;-57
2022/08/05 05:43:28;;;;;;;;;;;;;;;;;;5044683;28;20373;-56
2022/08/05 05:45:54;;;;;;;;;;;;;;;;;;5045230;28;19925;-59
2022/08/05 05:48:20;;;;;;;;;;;;;;;;;;5046305;28;19921;-54
2022/08/05 05:50:46;;;;;;;;;;;;;;;;;;5044443;28;19924;-68
2022/08/05 05:53:12;;;;;;;;;;;;;;;;;;5046604;28;19935;-56
2022/08/05 05:55:38;;;;;;;0.10;0.10;;;;;;;;;;5044393;28;19928;-58
2022/08/05 05:58:04;;;;;;;;;;;;;;;;;;5043991;28;20060;-55
2022/08/05 06:00:30;;;;;;;;;;;;;;;;;;5046451;28;20729;-56
2022/08/05 06:02:56;;;;;;;;;;;;;;;;;;5043431;28;19964;-63
2022/08/05 06:05:22;;;;;;;;;;;;;;;;;;5046043;28;19947;-57
2022/08/05 06:07:48;;;;;;;;;;;;;;;;;;5040549;28;19921;-55
2022/08/05 06:10:14;;;;;;;;;;;;;;;;;;5043687;28;19939;-62
2022/08/05 06:12:41;;;;;;;;;;;;;;;;;;5045531;28;19994;-58
2022/08/05 06:15:07;;;;;;;;;;;;;;;;;;5042499;28;19924;-57
2022/08/05 06:17:33;;;;;;;;;;;;;;;;;;5045619;28;19928;-54
2022/08/05 06:19:59;;;;;;;;;;;;;;;;;;5045363;28;20419;-54
2022/08/05 06:22:25;;;;;;;;;;;;;;;;;;5036417;28;19928;-54
2022/08/05 06:24:51;;;;;;;;;;;;;;;;;;5046030;28;19924;-58
2022/08/05 06:27:17;;;;;;;;;;;;;;;;;;5046617;28;19928;-55
2022/08/05 06:29:43;;;;;;;;;;;;;;;;;;5046921;28;20415;-62
2022/08/05 06:32:09;;;;;;;;;;;;;;;;;;5046941;28;19921;-53
2022/08/05 06:34:34;;;;;;;;;;;;;;;;;;5046208;28;19936;-54
2022/08/05 06:37:00;;;;;;;;;;;;;;;;;;5046737;28;19924;-54
2022/08/05 06:39:26;;;;;;;;;;;;;;;;;;5047430;28;19931;-54
2022/08/05 06:41:52;;;;;;;;;;;;;;;;;;5047577;28;19963;-53
2022/08/05 06:44:18;;;;;;;;;;;;;;;;;;5047213;28;19987;-55
2022/08/05 06:46:44;;;;;;;;;;;;;;;;;;5047835;28;19920;-60
2022/08/05 06:49:10;;;;;;;;;;;;;;;;;;5047488;28;19921;-55
2022/08/05 06:51:36;;;;;;;;;;;;;;;;;;5041926;28;20054;-58
2022/08/05 06:54:02;;;;;;;;;;;;;;;;;;5030310;28;20407;-56
2022/08/05 06:56:28;;;;;;;;;;;;;;;;;;5037142;28;19921;-54
2022/08/05 06:58:54;;;;;;;;;;;;;;;;;;5036307;28;19925;-55
2022/08/05 07:01:19;;;;;;;;;;;;;;;;;;5038244;28;19925;-60
2022/08/05 07:03:46;;;;;;;;;;;;;;;;;;5034159;28;19925;-55
2022/08/05 07:06:11;;;;;;;;;;;;;;;;;;5036477;28;19925;-63
2022/08/05 07:08:37;;;;;;;;;;;;;;;;;;5034161;28;19944;-64
2022/08/05 07:11:04;;;;;;;;;;;;;;;;;;5016011;28;19928;-57
2022/08/05 07:18:59;;;;;;;;;;;;;;;;;;5032820;28;19921;-57
2022/08/05 07:21:25;;;;;;;;;;;;;;;;;;5033367;28;19998;-61
2022/08/05 07:23:50;;;;;;;;;;;;;;;;;;5036396;28;19929;-57
2022/08/05 07:26:16;;;;;;;;;;;;;;;;;;5029652;28;19920;-59
2022/08/05 07:28:42;;;;;;;;;;;;;;;;;;5033977;28;19921;-60
2022/08/05 07:31:08;;;;;;;;;;;;;;;;;;5035103;28;19936;-60
2022/08/05 07:33:34;;;;;;;;;;;;;;;;;;5031081;28;20199;-57
2022/08/05 07:36:00;;;;;;;;;;;;;;;;;;5032641;28;19925;-56
2022/08/05 07:38:26;;;;;;;;;;;;;;;;;;5036253;28;19931;-60
2022/08/05 07:40:52;;;;;;;;;;;;;;;;;;5012453;28;19929;-65
2022/08/05 07:43:18;;;;;;;;;;;;;;;;;;5020098;28;19921;-58
2022/08/05 07:45:44;;;;;;;;;;;;;;;;;;5027876;28;20428;-58
2022/08/05 07:48:10;;;;;;;;;;;;;;;;;;5031122;28;19947;-58
2022/08/05 07:50:36;;;;;;;;;;;;;;;;;;5045054;28;19929;-56
2022/08/05 07:53:01;;;;;;;;;;;;;;;;;;5045520;28;20006;-57
2022/08/05 07:55:28;;;;;;;;;;;;;;;;;;5045618;28;20449;-61
2022/08/05 07:57:54;;;;;;;;;;;;;;;;;;5044475;28;19928;-57
2022/08/05 08:00:20;;;;;;;;;;;;;;;;;;5046285;28;20285;-54
2022/08/05 08:02:45;;;;;;;;;;;;;;;;;;5045475;28;19931;-67
2022/08/05 08:05:11;;;;;;;;;;;;;;;;;;5045368;28;19982;-57
2022/08/05 08:07:37;;;;;;;;;;;;;;;;;;5046109;28;19927;-56
2022/08/05 08:10:03;;;;;;;;;;;;;;;;;;5044728;28;20361;-54
2022/08/05 08:12:29;;;;;;;;;;;;;;;;;;5046079;28;19924;-55
2022/08/05 08:14:55;;;;;;;;;;;;;;;;;;5044846;28;19932;-57
2022/08/05 08:17:21;;;;;;;;;;;;;;;;;;5044362;28;19980;-60
2022/08/05 08:19:47;;;;;;;;;;;;;;;;;;5045267;28;19921;-59
2022/08/05 08:22:13;;;;;;;;;;;;;;;;;;5046111;28;19979;-54
2022/08/05 08:24:38;;;;;;;;;;;;;;;;;;5045375;28;19924;-54
2022/08/05 08:27:04;;;;;;;;;;;;;;;;;;5045134;28;19982;-59
2022/08/05 08:29:30;;;;;;;;;;;;;;;;;;5045774;28;19921;-56
2022/08/05 08:31:56;;;;;;;;;;;;;;;;;;5044106;28;19951;-55
2022/08/05 08:34:22;;;;;;;;;;;;;;;;;;5045762;28;19950;-56
2022/08/05 08:36:48;;;;;;;;;;;;;;;;;;5045485;28;19920;-55
2022/08/05 08:39:16;;;;;;;;;;;;;;;;;;5046100;28;20018;-54
2022/08/05 08:41:42;;;;;;;;;;;;;;;;;;5045519;28;19936;-61
2022/08/05 08:44:08;;;;;;;;;;;;;;;;;;5045702;28;19927;-54
2022/08/05 08:46:34;;;;;;;;;;;;;;;;;;5045464;28;19924;-53
2022/08/05 08:49:00;;;;;;;;;;;;;;;;;;5045419;28;19925;-59
2022/08/05 08:51:26;;;;;;;;;;;;;;;;;;5033626;28;19925;-59
2022/08/05 08:53:52;;;;;;;;;;;;;;;;;;5025232;28;20384;-58
2022/08/05 08:56:19;;;;;;;;;;;;;;;;;;5026196;28;19924;-61
2022/08/05 08:58:45;;;;;;;;;;;;;;;;;;5025211;28;20416;-73
2022/08/05 09:01:12;;;;;;;;;;;;;;;;;;5029169;28;19947;-60
2022/08/05 09:03:37;;;;;;;;;;;;;;;;;;5045971;28;20376;-53
2022/08/05 09:06:04;;;;;;;;;;;;;;;;;;5045303;28;19927;-53
2022/08/05 09:08:30;;;;;;;;;;;;;;;;;;5034547;28;19967;-60
2022/08/05 09:10:56;;;;;;;;;;;;;;;;;;5032813;28;19924;-64
2022/08/05 09:13:22;;;;;;;;;;;;;;;;;;5041254;28;19921;-61
2022/08/05 09:15:48;;;;;;;;;;;;;;;;;;5045329;28;20399;-56
2022/08/05 09:18:14;;;;;;;;;;;;;;;;;;5050086;28;19925;-58
2022/08/05 09:20:42;;;;;;;;;;;;;;;;;;5048990;28;19924;-54
2022/08/05 09:23:09;;;;;;;;;;;;;;;;;;5049175;28;20001;-55
2022/08/05 09:25:35;;;;;;;;;;;;;;;;;;5041691;28;20129;-61
2022/08/05 09:28:01;;;;;;;;;;;;;;;;;;5017347;28;20401;-61
2022/08/05 09:30:27;;;;;;;;;;;;;;;;;;5009467;28;19968;-61
2022/08/05 09:32:53;;;;;;;;;;;;;;;;;;5015276;28;19943;-61
2022/08/05 09:35:19;;;;;;;;;;;;;;;;;;5019987;28;19928;-63
2022/08/05 09:37:45;;;;;;;;;;;;;;;;;;5023552;28;19926;-67
2022/08/05 09:40:12;;;;;;;;;;;;;;;;;;5016399;28;19948;-55
2022/08/05 09:42:38;;;;;;;;;;;;;;;;;;5028048;28;19967;-55
2022/08/05 09:45:04;;;;;;;;;;;;;;;;;;5026337;28;20358;-61
2022/08/05 09:47:29;;;;;;;;;;;;;;;;;;5025851;28;19928;-55
2022/08/05 09:49:55;;;;;;;;;;;;;;;;;;5042775;28;19924;-60
2022/08/05 09:52:21;;;;;;;;;;;;;;;;;;5043119;28;19925;-58
2022/08/05 09:54:47;;;;;;;;;;;;;;;;;;5043573;28;19920;-60
2022/08/05 09:57:13;;;;;;;;;;;;;;;;;;5047451;28;19971;-55
2022/08/05 09:59:39;;;;;;;;;;;;;;;;;;5046625;28;19943;-61
2022/08/05 10:02:05;;;;;;;;;;;;;;;;;;5045002;28;19932;-59
2022/08/05 10:04:31;;;;;;;;;;;;;;;;;;5044738;28;19925;-57
2022/08/05 10:06:57;;;;;;;;;;;;;;;;;;5040764;28;19921;-59
2022/08/05 10:09:23;;;;;;;;;;;;;;;;;;5042281;28;20848;-60
2022/08/05 10:11:49;;;;;;;;;;;;;;;;;;5043395;28;19959;-60
2022/08/05 10:14:15;;;;;;;;;;;;;;;;;;5045213;28;19928;-56
2022/08/05 10:16:41;;;;;;;;;;;;;;;;;;5046719;28;19924;-56
2022/08/05 10:19:07;;;;;;;;;;;;;;;;;;5042927;28;20003;-56
2022/08/05 10:21:33;;;;;;;;;;;;;;;;;;5047987;28;20307;-54
2022/08/05 10:23:59;;;;;;;;;;;;;;;;;;5039069;28;19921;-61
2022/08/05 10:26:25;;;;;;;;;;;;;;;;;;5045444;28;19928;-58
2022/08/05 10:28:51;;;;;;;;;;;;;;;;;;5043797;28;19971;-59
2022/08/05 10:31:17;;;;;;;;;;;;;;;;;;5038353;28;20002;-61
2022/08/05 10:33:43;;;;;;;;;;;;;;;;;;5048202;28;19929;-55
2022/08/05 10:36:09;;;;;;;;;;;;;;;;;;5044748;28;19920;-59
2022/08/05 10:38:35;;;;;;;;;;;;;;;;;;5043609;28;20427;-57
2022/08/05 10:41:01;;;;;;;;;;;;;;;;;;5046961;28;19934;-64
2022/08/05 10:43:27;;;;;;;;;;;;;;;;;;5046882;28;19920;-59
2022/08/05 10:45:52;;;;;;;;;;;;;;;;;;5039595;28;19921;-64
2022/08/05 10:48:18;;;;;;;;;;;;;;;;;;5040577;28;19928;-54
2022/08/05 10:50:44;;;;;;;;;;;;;;;;;;5043850;28;19956;-59
2022/08/05 10:53:10;;;;;;;;;;;;;;;;;;5045929;28;19927;-58
2022/08/05 10:55:36;;;;;;;;;;;;;;;;;;5045306;28;19924;-62
2022/08/05 10:58:02;;;;;;;;;;;;;;;;;;5040228;28;19925;-63
2022/08/05 11:00:28;;;;;;;;;;;;;;;;;;5035072;28;19928;-60
2022/08/05 11:02:54;;;;;;;;;;;;;;;;;;5034303;28;19920;-59
2022/08/05 11:05:19;;;;;;;;;;;;;;;;;;5047034;28;20007;-62
2022/08/05 11:07:45;;;;;;;;;;;;;;;;;;5047073;28;19978;-73
2022/08/05 11:10:11;;;;;;;;;;;;;;;;;;5041449;28;20282;-55
2022/08/05 11:12:40;;;;;;;;;;;;;;;;;;5038920;28;19932;-55
2022/08/05 11:15:06;;;;;;;;;;;;;;;;;;5045497;28;20542;-59
2022/08/05 11:17:34;;;;;;;;;;;;;;;;;;5040963;28;19920;-61
2022/08/05 11:20:00;;;;;;;;;;;;;;;;;;5033999;28;19974;-60
2022/08/05 11:22:26;;;;;;;;;;;;;;;;;;5044981;28;20306;-59
2022/08/05 11:24:51;;;;;;;;;;;;;;;;;;5035592;28;19932;-61
2022/08/05 11:27:17;;;;;;;;;;;;;;;;;;5033590;28;20361;-60
2022/08/05 11:29:45;;;;;;;;;;;;;;;;;;5037809;28;20018;-60
2022/08/05 11:32:11;;;;;;;;;;;;;;;;;;5036133;28;19932;-57
2022/08/05 11:34:37;;;;;;;;;;;;;;;;;;5036402;28;19921;-56
2022/08/05 11:37:03;;;;;;;;;;;;;;;;;;5036662;28;19921;-57
2022/08/05 11:39:29;;;;;;;;;;;;;;;;;;5041995;28;19924;-59
2022/08/05 11:41:55;;;;;;;;;;;;;;;;;;5034190;28;19921;-57
2022/08/05 11:44:21;;;;;;;;;;;;;;;;;;5042111;28;19959;-60
2022/08/05 11:46:47;;;;;;;;;;;;;;;;;;5045308;28;19921;-60
2022/08/05 11:49:13;;;;;;;;;;;;;;;;;;5039206;28;20385;-55
2022/08/05 11:51:39;;;;;;;;;;;;;;;;;;5028055;28;19920;-56
2022/08/05 11:54:05;;;;;;;;;;;;;;;;;;5039130;28;19963;-53
2022/08/05 11:56:31;;;;;;;;;;;;;;;;;;5044043;28;19931;-59
2022/08/05 11:58:57;;;;;;;;;;;;;;;;;;5035653;28;20411;-58
2022/08/05 12:01:23;;;;;;;;;;;;;;;;;;5044793;28;19927;-60
2022/08/05 12:03:53;;;;;;;;;;;;;;;;;;5045152;28;19974;-63
2022/08/05 12:06:19;;;;;;;;;;;;;;;;;;5037583;28;20008;-54
2022/08/05 12:08:45;;;;;;;;;;;;;;;;;;5037662;28;20028;-76
2022/08/05 12:11:11;;;;;;;;;;;;;;;;;;5035694;28;19931;-57
2022/08/05 12:13:37;;;;;;;;;;;;;;;;;;5041469;28;19920;-56
2022/08/05 12:16:03;;;;;;;;;;;;;;;;;;5042543;28;19925;-62
2022/08/05 12:18:29;;;;;;;;;;;;;;;;;;5036926;28;20396;-53
2022/08/05 12:20:55;;;;;;;;;;;;;;;;;;5045207;28;19924;-57
2022/08/05 12:23:21;;;;;;;;;;;;;;;;;;5041346;28;19976;-62
2022/08/05 12:25:47;;;;;;;;;;;;;;;;;;5032335;28;19927;-61
2022/08/05 12:28:13;;;;;;;;;;;;;;;;;;5041059;28;19921;-57
2022/08/05 12:30:38;;;;;;;;;;;;;;;;;;5041589;28;19928;-57
2022/08/05 12:33:04;;;;;;;;;;;;;;;;;;5042816;28;20693;-62
2022/08/05 12:35:30;;;;;;;;;;;;;;;;;;5045298;28;20004;-57
2022/08/05 12:37:56;;;;;;;;;;;;;;;;;;5039620;28;19924;-56
2022/08/05 12:40:24;;;;;;;;;;;;;;;;;;5042155;28;19944;-56
2022/08/05 12:42:50;;;;;;;;;;;;;;;;;;5031993;28;20373;-54
2022/08/05 12:45:17;;;;;;;;;;;;;;;;;;5046037;28;19931;-73
2022/08/05 12:47:43;;;;;;;;;;;;;;;;;;5044530;28;19921;-55
2022/08/05 12:50:09;;;;;;;;;;;;;;;;;;5041991;28;20317;-57
2022/08/05 12:52:35;;;;;;;;;;;;;;;;;;5044039;28;19924;-54
2022/08/05 12:55:00;;;;;;;;;;;;;;;;;;5033825;28;19936;-57
2022/08/05 12:57:26;;;;;;;;;;;;;;;;;;5044198;28;19925;-55
2022/08/05 12:59:52;;;;;;;;;;;;;;;;;;5039085;28;20400;-57
2022/08/05 13:02:18;;;;;;;;;;;;;;;;;;5037047;28;19924;-57
2022/08/05 13:04:45;;;;;;;;;;;;;;;;;;5048202;28;19925;-57
2022/08/05 13:07:11;;;;;;;;;;;;;;;;;;5046980;28;19951;-59
2022/08/05 13:09:37;;;;;;;;;;;;;;;;;;5041117;28;19939;-56
2022/08/05 13:12:03;;;;;;;;;;;;;;;;;;5038873;28;19920;-60
2022/08/05 13:14:29;;;;;;;;;;;;;;;;;;5044564;28;19927;-57
2022/08/05 13:16:55;;;;;;;;;;;;;;;;;;5041002;28;19925;-55
2022/08/05 13:19:21;;;;;;;;;;;;;;;;;;5043798;28;19972;-58
2022/08/05 13:21:47;;;;;;;;;;;;;;;;;;5044627;28;19924;-57
2022/08/05 13:24:13;;;;;;;;;;;;;;;;;;5047489;28;19928;-54
2022/08/05 13:26:39;;;;;;;;;;;;;;;;;;5048266;28;19920;-60
2022/08/05 13:29:05;;;;;;;;;;;;;;;;;;5042654;28;19955;-62
2022/08/05 13:31:31;;;;;;;;;;;;;;;;;;5045453;28;19956;-62
2022/08/05 13:33:57;;;;;;;;;;;;;;;;;;5044290;28;20346;-57
2022/08/05 13:36:23;;;;;;;;;;;;;;;;;;5037260;28;20395;-60
2022/08/05 13:38:49;;;;;;;;;;;;;;;;;;5044083;28;20011;-54
2022/08/05 13:41:15;;;;;;;;;;;;;;;;;;5046936;28;19966;-61
2022/08/05 13:43:43;;;;;;;;;;;;;;;;;;5048699;28;19998;-57
2022/08/05 13:46:10;;;;;;;;;;;;;;;;;;5047533;28;20384;-59
2022/08/05 13:48:36;;;;;;;;;;;;;;;;;;5037134;28;19935;-58
2022/08/05 13:51:02;;;;;;;;;;;;;;;;;;5046603;28;20004;-57
2022/08/05 13:53:28;;;;;;;;;;;;;;;;;;5048204;28;19924;-57
2022/08/05 13:55:54;;;;;;;;;;;;;;;;;;5039016;28;19975;-55
2022/08/05 13:58:20;;;;;;;;;;;;;;;;;;5047239;28;19925;-55
2022/08/05 14:00:46;;;;;;;;;;;;;;;;;;5040947;28;20486;-58
2022/08/05 14:03:12;;;;;;;;;;;;;;;;;;5033646;28;20427;-59
2022/08/05 14:05:38;;;;;;;;;;;;;;;;;;5018460;28;19921;-55
2022/08/05 14:08:03;;;;;;;;;;;;;;;;;;5033822;28;19928;-57
2022/08/05 14:10:29;;;;;;;;;;;;;;;;;;5042118;28;19928;-54
2022/08/05 14:12:55;;;;;;;;;;;;;;;;;;5043896;28;19987;-56
2022/08/05 14:15:21;;;;;;;;;;;;;;;;;;5046058;28;20438;-54
2022/08/05 14:17:47;;;;;;;;;;;;;;;;;;5047518;28;19921;-57
2022/08/05 14:20:13;;;;;;;;;;;;;;;;;;5045375;28;19921;-54
2022/08/05 14:22:41;;;;;;;;;;;;;;;;;;5035845;28;20313;-59
2022/08/05 14:25:07;;;;;;;;;;;;;;;;;;5038881;28;19925;-60
2022/08/05 14:27:32;;;;;;;;;;;;;;;;;;5046994;28;20284;-55
2022/08/05 14:29:58;;;;;;;;;;;;;;;;;;5039124;28;19931;-62
2022/08/05 14:32:25;;;;;;;;;;;;;;;;;;5006955;28;19925;-55
2022/08/05 14:34:50;;;;;;;;;;;;;;;;;;5047457;28;19920;-58
2022/08/05 14:37:16;;;;;;;;;;;;;;;;;;5046660;28;20289;-64
2022/08/05 14:39:42;;;;;;;;;;;;;;;;;;5048031;28;19931;-55
2022/08/05 14:42:08;;;;;;;;;;;;;;;;;;5046858;28;19921;-59
2022/08/05 14:44:34;;;;;;;;;;;;;;;;;;5046690;28;20619;-57
2022/08/05 14:47:00;;;;;;;;;;;;;;;;;;5028858;28;19921;-60
2022/08/05 14:49:26;;;;;;;;;;;;;;;;;;5047054;28;19925;-56
2022/08/05 14:51:52;;;;;;;;;;;;;;;;;;5046509;28;19927;-63
2022/08/05 14:54:18;;;;;;;;;;;;;;;;;;5046687;28;19936;-54
2022/08/05 14:56:44;;;;;;;;;;;;;;;;;;5047817;28;19920;-56
2022/08/05 14:59:10;;;;;;;;;;;;;;;;;;5045936;28;20364;-56
2022/08/05 15:01:36;;;;;;;;;;;;;;;;;;5046414;28;19925;-58
2022/08/05 15:04:02;;;;;;;;;;;;;;;;;;5046258;28;20061;-54
2022/08/05 15:06:28;;;;;;;;;;;;;;;;;;5046139;28;19920;-54
2022/08/05 15:08:55;;;;;;;0.10;0.10;;;;;;;;;;5046220;28;19991;-63
2022/08/05 15:11:21;;;;;;;0.28;0.10;;;;;;;;;;5045878;28;20587;-58
2022/08/05 15:13:47;;;;;;;0.57;0.25;;;;;;;;;;5045301;28;20045;-58
2022/08/05 15:16:13;;;;;;;0.60;0.10;;;;;;;;;;5046173;28;20408;-55
2022/08/05 15:18:39;;;;;;;0.17;0.10;;;;;;;;;;5045672;28;20052;-58
2022/08/05 15:21:05;;;;;;;0.10;0.10;;;;;;;;;;5045569;28;20080;-59
2022/08/05 15:23:31;;;;;;;0.30;0.10;;;;;;;;;;5046114;28;20088;-55
2022/08/05 15:25:57;;;;;;;0.10;0.10;;;;;;;;;;5041759;28;20046;-61
2022/08/05 15:28:23;;;;;;;0.40;0.10;;;;;;;;;;5033529;28;20112;-56
2022/08/05 15:30:49;;;;;;;0.98;0.10;;;;;;;;;;5034930;28;20474;-57
2022/08/05 15:33:16;;;;;;;0.20;0.10;;;;;;;;;;5045194;28;20092;-55
2022/08/05 15:35:42;;;;;;;0.10;0.00;;;;;;;;;;5047257;28;20131;-55
2022/08/05 15:38:08;;;;;;;0.10;0.03;;;;;;;;;;5045473;28;20091;-57
2022/08/05 15:40:34;;;;;;;0.10;0.03;;;;;;;;;;5045041;28;20053;-62
2022/08/05 15:43:00;;;;;;;0.35;0.10;;;;;;;;;;5045507;28;20409;-65
2022/08/05 15:45:27;;;;;;;0.32;0.13;;;;;;;;;;5045776;28;20041;-59
2022/08/05 15:47:53;;;;;;;0.50;0.20;;;;;;;;;;5044555;28;20064;-62
2022/08/05 15:50:19;;;;;;;0.40;0.20;;;;;;;;;;5022652;28;20499;-59
2022/08/05 15:52:45;;;;;;;1.00;0.10;;;;;;;;;;5019936;28;20046;-66
2022/08/05 15:55:15;;;;;;;0.47;0.17;;;;;;;;;;5013620;28;20477;-61
2022/08/05 15:57:42;;;;;;;0.85;0.20;;;;;;;;;;5018888;28;20486;-55
2022/08/05 16:00:09;;;;;;;0.63;0.10;;;;;;;;;;5037220;28;20053;-53
2022/08/05 16:02:35;;;;;;;1.80;0.10;;;;;;;;;;5029556;28;20135;-57
2022/08/05 16:05:01;;;;;;;0.82;0.25;;;;;;;;;;5040361;28;20473;-58
2022/08/05 16:07:27;;;;;;;0.55;0.25;;;;;;;;;;5009931;28;20042;-59
2022/08/05 16:09:53;;;;;;;0.20;0.10;;;;;;;;;;5027423;28;20041;-55
2022/08/05 16:12:19;;;;;;;0.38;0.10;;;;;;;;;;5031448;28;20132;-56
2022/08/05 16:14:46;;;;;;;0.20;0.10;;;;;;;;;;5029016;28;20060;-65
2022/08/05 16:17:12;;;;;;;0.20;0.10;;;;;;;;;;5042250;28;20047;-61
2022/08/05 16:19:38;;;;;;;0.28;0.17;;;;;;;;;;5017840;28;20051;-52
2022/08/05 16:22:04;;;;;;;0.20;0.10;;;;;;;;;;5035214;28;20089;-58
2022/08/05 16:24:31;;;;;;;0.40;0.20;;;;;;;;;;5032275;28;20044;-56
2022/08/05 16:26:58;;;;;;;0.37;0.20;;;;;;;;;;5025572;28;20469;-55
2022/08/05 16:29:25;;;;;;;0.50;0.10;;;;;;;;;;5026178;28;20124;-56